sensor_id;sensor_type;location;lat;lon;timestamp;pressure;altitude;pressure_sealevel;temperature;humidity
33265;BME280;31404;53.974;-1.086;2023-05-16T00:00:36;102282.54;;;7.93;80.13
33265;BME280;31404;53.974;-1.086;2023-05-16T00:05:34;102277.10;;;8.09;79.26
33265;BME280;31404;53.974;-1.086;2023-05-16T00:10:34;102277.52;;;7.60;78.74
33265;BME280;31404;53.974;-1.086;2023-05-16T00:15:34;102269.33;;;6.91;84.50
33265;BME280;31404;53.974;-1.086;2023-05-16T00:20:35;102271.49;;;7.10;84.86
33265;BME280;31404;53.974;-1.086;2023-05-16T00:25:37;102272.41;;;7.63;79.93
33265;BME280;31404;53.974;-1.086;2023-05-16T00:30:35;102275.79;;;9.51;72.33
33265;BME280;31404;53.974;-1.086;2023-05-16T00:35:36;102272.67;;;6.89;81.67
33265;BME280;31404;53.974;-1.086;2023-05-16T00:40:36;102268.82;;;9.23;73.33
33265;BME280;31404;53.974;-1.086;2023-05-16T00:45:35;102271.54;;;9.44;69.31
33265;BME280;31404;53.974;-1.086;2023-05-16T00:50:36;102266.20;;;9.07;67.84
33265;BME280;31404;53.974;-1.086;2023-05-16T00:55:35;102267.84;;;7.93;72.84
33265;BME280;31404;53.974;-1.086;2023-05-16T01:00:38;102268.40;;;7.99;72.45
33265;BME280;31404;53.974;-1.086;2023-05-16T01:05:36;102264.97;;;9.19;68.66
33265;BME280;31404;53.974;-1.086;2023-05-16T01:30:39;102277.08;;;6.02;78.56
33265;BME280;31404;53.974;-1.086;2023-05-16T01:40:41;102274.46;;;5.65;80.95
33265;BME280;31404;53.974;-1.086;2023-05-16T01:45:40;102264.91;;;5.80;81.13
33265;BME280;31404;53.974;-1.086;2023-05-16T01:50:38;102267.70;;;5.93;81.13
33265;BME280;31404;53.974;-1.086;2023-05-16T02:00:38;102266.23;;;5.49;82.42
33265;BME280;31404;53.974;-1.086;2023-05-16T02:05:37;102259.25;;;6.19;79.22
33265;BME280;31404;53.974;-1.086;2023-05-16T02:10:37;102264.69;;;5.24;82.66
33265;BME280;31404;53.974;-1.086;2023-05-16T02:15:34;102262.13;;;6.68;78.87
33265;BME280;31404;53.974;-1.086;2023-05-16T02:20:37;102260.98;;;7.09;75.21
33265;BME280;31404;53.974;-1.086;2023-05-16T02:25:35;102259.10;;;7.28;72.58
33265;BME280;31404;53.974;-1.086;2023-05-16T02:30:37;102264.09;;;6.75;75.34
33265;BME280;31404;53.974;-1.086;2023-05-16T02:35:35;102268.50;;;4.06;87.09
33265;BME280;31404;53.974;-1.086;2023-05-16T02:40:36;102271.21;;;4.20;87.61
33265;BME280;31404;53.974;-1.086;2023-05-16T02:45:36;102279.09;;;5.06;83.30
33265;BME280;31404;53.974;-1.086;2023-05-16T02:50:36;102274.06;;;6.97;74.49
33265;BME280;31404;53.974;-1.086;2023-05-16T02:55:36;102273.96;;;6.34;77.75
33265;BME280;31404;53.974;-1.086;2023-05-16T03:00:35;102268.84;;;7.15;76.70
33265;BME280;31404;53.974;-1.086;2023-05-16T03:05:35;102264.22;;;7.77;73.19
33265;BME280;31404;53.974;-1.086;2023-05-16T03:10:35;102272.24;;;4.84;83.81
33265;BME280;31404;53.974;-1.086;2023-05-16T03:15:34;102270.61;;;5.88;80.81
33265;BME280;31404;53.974;-1.086;2023-05-16T03:20:36;102274.93;;;5.46;84.08
33265;BME280;31404;53.974;-1.086;2023-05-16T03:25:36;102289.08;;;2.27;98.66
33265;BME280;31404;53.974;-1.086;2023-05-16T03:30:37;102277.52;;;4.83;88.45
33265;BME280;31404;53.974;-1.086;2023-05-16T03:35:36;102278.20;;;3.16;97.60
33265;BME280;31404;53.974;-1.086;2023-05-16T03:40:37;102278.54;;;3.56;92.73
33265;BME280;31404;53.974;-1.086;2023-05-16T03:45:34;102283.06;;;3.38;95.58
33265;BME280;31404;53.974;-1.086;2023-05-16T03:50:34;102284.80;;;3.23;96.15
33265;BME280;31404;53.974;-1.086;2023-05-16T03:55:34;102280.55;;;4.56;89.02
33265;BME280;31404;53.974;-1.086;2023-05-16T04:00:36;102283.30;;;2.57;100.00
33265;BME280;31404;53.974;-1.086;2023-05-16T04:05:36;102286.51;;;3.68;92.90
33265;BME280;31404;53.974;-1.086;2023-05-16T04:10:35;102281.10;;;5.08;88.63
33265;BME280;31404;53.974;-1.086;2023-05-16T04:15:35;102280.43;;;4.47;88.49
33265;BME280;31404;53.974;-1.086;2023-05-16T04:20:41;102285.51;;;3.04;97.40
33265;BME280;31404;53.974;-1.086;2023-05-16T04:25:35;102280.68;;;3.40;95.75
33265;BME280;31404;53.974;-1.086;2023-05-16T04:30:37;102279.64;;;5.47;86.88
33265;BME280;31404;53.974;-1.086;2023-05-16T04:35:37;102280.99;;;4.31;88.85
33265;BME280;31404;53.974;-1.086;2023-05-16T04:40:37;102288.40;;;3.08;98.70
33265;BME280;31404;53.974;-1.086;2023-05-16T04:45:35;102290.92;;;3.26;97.94
33265;BME280;31404;53.974;-1.086;2023-05-16T04:50:36;102293.92;;;2.74;100.00
33265;BME280;31404;53.974;-1.086;2023-05-16T04:55:37;102294.82;;;3.35;100.00
33265;BME280;31404;53.974;-1.086;2023-05-16T05:00:38;102294.89;;;3.98;96.78
33265;BME280;31404;53.974;-1.086;2023-05-16T05:05:35;102288.99;;;5.37;88.13
33265;BME280;31404;53.974;-1.086;2023-05-16T05:10:39;102295.76;;;4.86;91.17
33265;BME280;31404;53.974;-1.086;2023-05-16T05:15:39;102297.20;;;5.96;86.38
33265;BME280;31404;53.974;-1.086;2023-05-16T05:20:36;102301.27;;;4.57;91.22
33265;BME280;31404;53.974;-1.086;2023-05-16T05:25:39;102305.08;;;6.30;83.12
33265;BME280;31404;53.974;-1.086;2023-05-16T05:30:37;102301.78;;;7.11;80.53
33265;BME280;31404;53.974;-1.086;2023-05-16T05:35:37;102296.88;;;7.28;80.32
33265;BME280;31404;53.974;-1.086;2023-05-16T05:40:38;102292.72;;;7.77;77.69
33265;BME280;31404;53.974;-1.086;2023-05-16T05:45:35;102304.82;;;5.82;85.23
33265;BME280;31404;53.974;-1.086;2023-05-16T05:50:34;102295.20;;;6.67;85.59
33265;BME280;31404;53.974;-1.086;2023-05-16T05:55:37;102296.18;;;6.62;84.54
33265;BME280;31404;53.974;-1.086;2023-05-16T06:00:37;102304.14;;;7.14;81.95
33265;BME280;31404;53.974;-1.086;2023-05-16T06:05:37;102311.47;;;6.76;84.27
33265;BME280;31404;53.974;-1.086;2023-05-16T06:10:37;102310.86;;;7.88;79.93
33265;BME280;31404;53.974;-1.086;2023-05-16T06:15:37;102312.12;;;7.63;80.91
33265;BME280;31404;53.974;-1.086;2023-05-16T06:20:37;102314.26;;;8.54;75.19
33265;BME280;31404;53.974;-1.086;2023-05-16T06:25:34;102314.31;;;8.62;75.07
33265;BME280;31404;53.974;-1.086;2023-05-16T06:30:37;102317.24;;;6.66;84.61
33265;BME280;31404;53.974;-1.086;2023-05-16T06:35:38;102322.32;;;7.55;82.18
33265;BME280;31404;53.974;-1.086;2023-05-16T06:40:36;102322.17;;;7.23;86.22
33265;BME280;31404;53.974;-1.086;2023-05-16T06:45:35;102331.18;;;5.44;93.22
33265;BME280;31404;53.974;-1.086;2023-05-16T06:50:38;102332.98;;;5.56;93.10
33265;BME280;31404;53.974;-1.086;2023-05-16T06:55:37;102328.68;;;5.49;96.37
33265;BME280;31404;53.974;-1.086;2023-05-16T07:00:37;102329.13;;;5.77;93.80
33265;BME280;31404;53.974;-1.086;2023-05-16T07:05:36;102328.13;;;5.37;96.49
33265;BME280;31404;53.974;-1.086;2023-05-16T07:10:38;102322.62;;;6.73;89.44
33265;BME280;31404;53.974;-1.086;2023-05-16T07:15:34;102329.91;;;6.07;91.46
33265;BME280;31404;53.974;-1.086;2023-05-16T07:20:35;102328.06;;;7.94;81.35
33265;BME280;31404;53.974;-1.086;2023-05-16T07:25:38;102326.00;;;7.09;85.00
33265;BME280;31404;53.974;-1.086;2023-05-16T07:30:34;102325.57;;;8.63;79.01
33265;BME280;31404;53.974;-1.086;2023-05-16T07:35:36;102323.94;;;8.64;80.98
33265;BME280;31404;53.974;-1.086;2023-05-16T07:40:37;102330.62;;;9.86;75.51
33265;BME280;31404;53.974;-1.086;2023-05-16T07:45:37;102339.55;;;10.29;72.97
33265;BME280;31404;53.974;-1.086;2023-05-16T07:50:36;102344.77;;;9.41;74.68
33265;BME280;31404;53.974;-1.086;2023-05-16T07:55:35;102342.24;;;8.67;75.72
33265;BME280;31404;53.974;-1.086;2023-05-16T08:00:38;102337.07;;;8.20;79.51
33265;BME280;31404;53.974;-1.086;2023-05-16T08:05:36;102333.62;;;8.48;78.14
33265;BME280;31404;53.974;-1.086;2023-05-16T08:10:38;102327.98;;;9.43;75.78
33265;BME280;31404;53.974;-1.086;2023-05-16T08:15:34;102327.98;;;9.39;75.40
33265;BME280;31404;53.974;-1.086;2023-05-16T08:20:35;102327.00;;;9.58;74.30
33265;BME280;31404;53.974;-1.086;2023-05-16T08:25:39;102327.62;;;9.88;74.00
33265;BME280;31404;53.974;-1.086;2023-05-16T08:30:36;102318.88;;;9.21;74.92
33265;BME280;31404;53.974;-1.086;2023-05-16T08:40:37;102322.50;;;8.70;75.10
33265;BME280;31404;53.974;-1.086;2023-05-16T08:45:36;102327.87;;;8.34;77.12
33265;BME280;31404;53.974;-1.086;2023-05-16T08:50:34;102330.83;;;9.38;72.78
33265;BME280;31404;53.974;-1.086;2023-05-16T08:55:39;102327.08;;;8.36;75.66
33265;BME280;31404;53.974;-1.086;2023-05-16T09:00:38;102331.80;;;9.62;73.02
33265;BME280;31404;53.974;-1.086;2023-05-16T09:05:34;102323.88;;;10.23;70.17
33265;BME280;31404;53.974;-1.086;2023-05-16T09:10:36;102323.17;;;9.97;70.14
33265;BME280;31404;53.974;-1.086;2023-05-16T09:15:36;102325.01;;;9.92;70.61
33265;BME280;31404;53.974;-1.086;2023-05-16T09:25:39;102331.73;;;10.83;69.77
33265;BME280;31404;53.974;-1.086;2023-05-16T09:30:35;102343.75;;;10.45;68.17
33265;BME280;31404;53.974;-1.086;2023-05-16T09:35:38;102348.33;;;9.15;75.74
33265;BME280;31404;53.974;-1.086;2023-05-16T09:45:38;102340.86;;;10.30;71.87
33265;BME280;31404;53.974;-1.086;2023-05-16T09:50:36;102343.20;;;11.10;70.89
33265;BME280;31404;53.974;-1.086;2023-05-16T09:55:34;102349.16;;;11.48;68.64
33265;BME280;31404;53.974;-1.086;2023-05-16T10:00:35;102353.61;;;11.76;66.97
33265;BME280;31404;53.974;-1.086;2023-05-16T10:05:30;102351.66;;;11.30;67.62
33265;BME280;31404;53.974;-1.086;2023-05-16T10:10:36;102360.13;;;10.45;69.38
33265;BME280;31404;53.974;-1.086;2023-05-16T10:15:36;102352.42;;;11.43;67.90
33265;BME280;31404;53.974;-1.086;2023-05-16T10:20:35;102353.17;;;11.70;66.72
33265;BME280;31404;53.974;-1.086;2023-05-16T10:30:36;102356.32;;;11.39;67.97
33265;BME280;31404;53.974;-1.086;2023-05-16T10:35:36;102366.20;;;11.90;64.81
33265;BME280;31404;53.974;-1.086;2023-05-16T10:40:39;102369.70;;;10.94;67.60
33265;BME280;31404;53.974;-1.086;2023-05-16T10:50:36;102353.67;;;10.81;68.45
33265;BME280;31404;53.974;-1.086;2023-05-16T10:55:38;102357.79;;;11.97;66.99
33265;BME280;31404;53.974;-1.086;2023-05-16T11:00:39;102349.31;;;12.14;64.66
33265;BME280;31404;53.974;-1.086;2023-05-16T11:05:35;102344.83;;;13.18;62.57
33265;BME280;31404;53.974;-1.086;2023-05-16T11:10:34;102349.23;;;13.21;62.80
33265;BME280;31404;53.974;-1.086;2023-05-16T11:15:35;102346.74;;;11.94;66.68
33265;BME280;31404;53.974;-1.086;2023-05-16T11:20:36;102339.27;;;12.46;65.33
33265;BME280;31404;53.974;-1.086;2023-05-16T11:25:39;102325.01;;;12.22;64.95
33265;BME280;31404;53.974;-1.086;2023-05-16T11:30:34;102322.59;;;12.57;64.21
33265;BME280;31404;53.974;-1.086;2023-05-16T11:35:35;102328.19;;;13.12;61.66
33265;BME280;31404;53.974;-1.086;2023-05-16T11:40:34;102333.80;;;13.18;62.81
33265;BME280;31404;53.974;-1.086;2023-05-16T11:45:37;102337.21;;;12.48;63.00
33265;BME280;31404;53.974;-1.086;2023-05-16T11:50:37;102327.44;;;12.93;62.30
33265;BME280;31404;53.974;-1.086;2023-05-16T11:55:35;102322.69;;;14.80;57.33
33265;BME280;31404;53.974;-1.086;2023-05-16T12:00:34;102327.90;;;12.84;59.91
33265;BME280;31404;53.974;-1.086;2023-05-16T12:05:36;102325.68;;;13.49;58.27
33265;BME280;31404;53.974;-1.086;2023-05-16T12:10:35;102327.00;;;14.33;56.78
33265;BME280;31404;53.974;-1.086;2023-05-16T12:15:36;102329.99;;;13.95;58.25
33265;BME280;31404;53.974;-1.086;2023-05-16T12:20:37;102328.59;;;14.94;55.68
33265;BME280;31404;53.974;-1.086;2023-05-16T12:25:38;102326.28;;;13.77;58.51
33265;BME280;31404;53.974;-1.086;2023-05-16T12:30:35;102322.17;;;14.13;57.11
33265;BME280;31404;53.974;-1.086;2023-05-16T12:35:37;102325.16;;;12.82;58.93
33265;BME280;31404;53.974;-1.086;2023-05-16T12:40:36;102327.59;;;12.39;58.19
33265;BME280;31404;53.974;-1.086;2023-05-16T12:45:37;102321.13;;;13.57;58.66
33265;BME280;31404;53.974;-1.086;2023-05-16T12:50:38;102312.77;;;15.07;54.49
33265;BME280;31404;53.974;-1.086;2023-05-16T12:55:38;102315.83;;;13.37;58.90
33265;BME280;31404;53.974;-1.086;2023-05-16T13:00:38;102317.51;;;13.56;58.29
33265;BME280;31404;53.974;-1.086;2023-05-16T13:05:35;102315.61;;;12.98;58.99
33265;BME280;31404;53.974;-1.086;2023-05-16T13:10:34;102305.40;;;13.36;55.78
33265;BME280;31404;53.974;-1.086;2023-05-16T13:15:34;102308.40;;;14.31;54.63
33265;BME280;31404;53.974;-1.086;2023-05-16T13:20:34;102306.72;;;12.94;56.74
33265;BME280;31404;53.974;-1.086;2023-05-16T13:25:34;102305.79;;;13.26;58.32
33265;BME280;31404;53.974;-1.086;2023-05-16T13:30:35;102306.36;;;14.39;56.44
33265;BME280;31404;53.974;-1.086;2023-05-16T13:35:36;102299.03;;;13.70;56.92
33265;BME280;31404;53.974;-1.086;2023-05-16T13:40:36;102298.10;;;13.10;58.62
33265;BME280;31404;53.974;-1.086;2023-05-16T13:45:35;102300.22;;;14.23;56.34
33265;BME280;31404;53.974;-1.086;2023-05-16T13:50:37;102306.54;;;14.41;55.37
33265;BME280;31404;53.974;-1.086;2023-05-16T13:55:37;102301.83;;;14.39;56.00
33265;BME280;31404;53.974;-1.086;2023-05-16T14:00:35;102296.98;;;14.01;57.14
33265;BME280;31404;53.974;-1.086;2023-05-16T14:05:34;102285.10;;;14.98;55.07
33265;BME280;31404;53.974;-1.086;2023-05-16T14:10:35;102290.16;;;14.63;55.13
33265;BME280;31404;53.974;-1.086;2023-05-16T14:15:36;102288.53;;;15.54;53.76
33265;BME280;31404;53.974;-1.086;2023-05-16T14:20:34;102296.14;;;13.40;56.29
33265;BME280;31404;53.974;-1.086;2023-05-16T14:30:35;102300.36;;;13.42;58.16
33265;BME280;31404;53.974;-1.086;2023-05-16T14:35:34;102294.35;;;14.43;56.16
33265;BME280;31404;53.974;-1.086;2023-05-16T14:40:35;102311.35;;;11.37;64.20
33265;BME280;31404;53.974;-1.086;2023-05-16T14:45:37;102306.19;;;13.14;59.94
33265;BME280;31404;53.974;-1.086;2023-05-16T14:50:36;102302.67;;;13.22;60.05
33265;BME280;31404;53.974;-1.086;2023-05-16T14:55:34;102295.48;;;15.03;55.91
33265;BME280;31404;53.974;-1.086;2023-05-16T15:00:34;102296.90;;;14.52;53.37
33265;BME280;31404;53.974;-1.086;2023-05-16T15:05:35;102303.57;;;14.11;55.29
33265;BME280;31404;53.974;-1.086;2023-05-16T15:10:35;102298.53;;;14.94;56.81
33265;BME280;31404;53.974;-1.086;2023-05-16T15:15:35;102296.90;;;14.51;57.30
33265;BME280;31404;53.974;-1.086;2023-05-16T15:20:35;102295.80;;;15.95;53.72
33265;BME280;31404;53.974;-1.086;2023-05-16T15:25:35;102301.59;;;15.25;54.81
33265;BME280;31404;53.974;-1.086;2023-05-16T15:30:34;102306.83;;;12.79;62.30
33265;BME280;31404;53.974;-1.086;2023-05-16T15:35:34;102310.39;;;12.83;58.68
33265;BME280;31404;53.974;-1.086;2023-05-16T15:40:35;102301.63;;;14.52;57.02
33265;BME280;31404;53.974;-1.086;2023-05-16T15:45:36;102308.42;;;14.87;54.96
33265;BME280;31404;53.974;-1.086;2023-05-16T15:50:35;102319.14;;;15.23;55.19
33265;BME280;31404;53.974;-1.086;2023-05-16T15:55:36;102315.38;;;15.21;56.85
33265;BME280;31404;53.974;-1.086;2023-05-16T16:00:35;102327.59;;;16.31;55.63
33265;BME280;31404;53.974;-1.086;2023-05-16T16:05:35;102330.95;;;15.78;57.49
33265;BME280;31404;53.974;-1.086;2023-05-16T16:10:35;102327.47;;;15.59;56.82
33265;BME280;31404;53.974;-1.086;2023-05-16T16:15:37;102325.09;;;17.40;56.97
33265;BME280;31404;53.974;-1.086;2023-05-16T16:20:36;102324.22;;;17.90;52.41
33265;BME280;31404;53.974;-1.086;2023-05-16T16:25:35;102329.85;;;17.73;52.21
33265;BME280;31404;53.974;-1.086;2023-05-16T16:30:38;102338.28;;;17.82;51.81
33265;BME280;31404;53.974;-1.086;2023-05-16T16:35:35;102337.53;;;17.44;52.80
33265;BME280;31404;53.974;-1.086;2023-05-16T16:40:35;102344.56;;;15.21;56.85
33265;BME280;31404;53.974;-1.086;2023-05-16T16:45:35;102351.07;;;16.03;58.10
33265;BME280;31404;53.974;-1.086;2023-05-16T16:50:36;102346.36;;;15.59;60.13
33265;BME280;31404;53.974;-1.086;2023-05-16T16:55:36;102345.75;;;15.87;60.23
33265;BME280;31404;53.974;-1.086;2023-05-16T17:00:35;102343.93;;;16.10;59.87
33265;BME280;31404;53.974;-1.086;2023-05-16T17:05:35;102340.25;;;16.49;58.54
33265;BME280;31404;53.974;-1.086;2023-05-16T17:10:34;102352.51;;;12.89;63.45
33265;BME280;31404;53.974;-1.086;2023-05-16T17:15:35;102351.79;;;13.11;62.80
33265;BME280;31404;53.974;-1.086;2023-05-16T17:20:34;102356.41;;;13.38;62.41
33265;BME280;31404;53.974;-1.086;2023-05-16T17:25:37;102355.30;;;11.94;66.04
33265;BME280;31404;53.974;-1.086;2023-05-16T17:30:35;102354.48;;;13.54;63.05
33265;BME280;31404;53.974;-1.086;2023-05-16T17:35:35;102358.95;;;14.51;61.45
33265;BME280;31404;53.974;-1.086;2023-05-16T17:40:36;102359.03;;;13.46;64.86
33265;BME280;31404;53.974;-1.086;2023-05-16T17:45:35;102368.92;;;13.01;66.71
33265;BME280;31404;53.974;-1.086;2023-05-16T17:50:35;102378.14;;;14.10;63.21
33265;BME280;31404;53.974;-1.086;2023-05-16T17:55:34;102378.34;;;13.53;64.31
33265;BME280;31404;53.974;-1.086;2023-05-16T18:00:34;102389.37;;;11.99;70.34
33265;BME280;31404;53.974;-1.086;2023-05-16T18:05:34;102389.04;;;13.11;68.74
33265;BME280;31404;53.974;-1.086;2023-05-16T18:10:34;102388.57;;;12.51;71.72
33265;BME280;31404;53.974;-1.086;2023-05-16T18:15:34;102398.59;;;12.02;74.06
33265;BME280;31404;53.974;-1.086;2023-05-16T18:20:36;102400.85;;;12.50;74.09
33265;BME280;31404;53.974;-1.086;2023-05-16T18:25:35;102403.98;;;11.54;78.93
33265;BME280;31404;53.974;-1.086;2023-05-16T18:30:34;102404.39;;;12.01;76.79
33265;BME280;31404;53.974;-1.086;2023-05-16T18:35:34;102407.63;;;12.04;77.90
33265;BME280;31404;53.974;-1.086;2023-05-16T18:40:36;102404.77;;;12.17;76.26
33265;BME280;31404;53.974;-1.086;2023-05-16T18:45:34;102412.67;;;13.31;73.90
33265;BME280;31404;53.974;-1.086;2023-05-16T18:50:34;102422.48;;;10.98;71.82
33265;BME280;31404;53.974;-1.086;2023-05-16T18:55:35;102419.89;;;12.02;68.62
33265;BME280;31404;53.974;-1.086;2023-05-16T19:00:37;102419.79;;;12.01;67.85
33265;BME280;31404;53.974;-1.086;2023-05-16T19:05:36;102416.41;;;12.41;68.61
33265;BME280;31404;53.974;-1.086;2023-05-16T19:10:36;102418.55;;;13.02;66.38
33265;BME280;31404;53.974;-1.086;2023-05-16T19:15:35;102432.26;;;12.44;68.50
33265;BME280;31404;53.974;-1.086;2023-05-16T19:20:35;102438.52;;;11.66;70.43
33265;BME280;31404;53.974;-1.086;2023-05-16T19:25:35;102440.19;;;12.42;70.04
33265;BME280;31404;53.974;-1.086;2023-05-16T19:30:36;102444.75;;;12.10;71.07
33265;BME280;31404;53.974;-1.086;2023-05-16T19:35:36;102447.40;;;10.33;76.48
33265;BME280;31404;53.974;-1.086;2023-05-16T19:40:35;102450.81;;;10.03;78.82
33265;BME280;31404;53.974;-1.086;2023-05-16T19:45:35;102455.40;;;11.17;75.27
33265;BME280;31404;53.974;-1.086;2023-05-16T19:50:35;102459.99;;;11.21;75.31
33265;BME280;31404;53.974;-1.086;2023-05-16T19:55:35;102472.62;;;10.15;80.00
33265;BME280;31404;53.974;-1.086;2023-05-16T20:00:35;102474.71;;;10.48;79.79
33265;BME280;31404;53.974;-1.086;2023-05-16T20:05:35;102476.44;;;11.81;73.79
33265;BME280;31404;53.974;-1.086;2023-05-16T20:10:37;102489.19;;;10.59;76.85
33265;BME280;31404;53.974;-1.086;2023-05-16T20:15:35;102496.21;;;12.01;72.84
33265;BME280;31404;53.974;-1.086;2023-05-16T20:20:35;102501.81;;;11.42;75.03
33265;BME280;31404;53.974;-1.086;2023-05-16T20:25:36;102496.64;;;13.16;69.95
33265;BME280;31404;53.974;-1.086;2023-05-16T20:30:35;102505.58;;;12.54;72.27
33265;BME280;31404;53.974;-1.086;2023-05-16T20:35:35;102521.61;;;11.28;75.32
33265;BME280;31404;53.974;-1.086;2023-05-16T20:40:34;102522.16;;;14.17;67.59
33265;BME280;31404;53.974;-1.086;2023-05-16T20:45:34;102530.37;;;14.59;65.72
33265;BME280;31404;53.974;-1.086;2023-05-16T20:50:34;102534.82;;;14.66;64.67
33265;BME280;31404;53.974;-1.086;2023-05-16T20:55:34;102544.82;;;12.23;74.43
33265;BME280;31404;53.974;-1.086;2023-05-16T21:00:34;102553.66;;;11.26;76.63
33265;BME280;31404;53.974;-1.086;2023-05-16T21:05:35;102553.86;;;10.40;81.34
33265;BME280;31404;53.974;-1.086;2023-05-16T21:10:35;102557.10;;;13.03;72.42
33265;BME280;31404;53.974;-1.086;2023-05-16T21:15:34;102551.65;;;14.02;67.57
33265;BME280;31404;53.974;-1.086;2023-05-16T21:20:35;102548.39;;;14.51;66.23
33265;BME280;31404;53.974;-1.086;2023-05-16T21:25:35;102549.09;;;14.28;66.76
33265;BME280;31404;53.974;-1.086;2023-05-16T21:30:38;102545.87;;;14.80;65.70
33265;BME280;31404;53.974;-1.086;2023-05-16T21:35:34;102549.06;;;15.07;63.63
33265;BME280;31404;53.974;-1.086;2023-05-16T21:40:35;102550.42;;;13.80;67.86
33265;BME280;31404;53.974;-1.086;2023-05-16T21:45:36;102554.53;;;13.42;68.60
33265;BME280;31404;53.974;-1.086;2023-05-16T21:50:36;102558.36;;;14.34;66.49
33265;BME280;31404;53.974;-1.086;2023-05-16T21:55:36;102565.67;;;15.01;64.57
33265;BME280;31404;53.974;-1.086;2023-05-16T22:00:35;102566.04;;;14.14;66.35
33265;BME280;31404;53.974;-1.086;2023-05-16T22:05:40;102572.61;;;15.01;63.83
33265;BME280;31404;53.974;-1.086;2023-05-16T22:10:35;102582.44;;;15.92;62.29
33265;BME280;31404;53.974;-1.086;2023-05-16T22:15:35;102581.05;;;14.50;64.77
33265;BME280;31404;53.974;-1.086;2023-05-16T22:20:37;102578.62;;;14.90;64.93
33265;BME280;31404;53.974;-1.086;2023-05-16T22:25:34;102576.14;;;14.86;65.62
33265;BME280;31404;53.974;-1.086;2023-05-16T22:30:36;102579.26;;;15.39;63.07
33265;BME280;31404;53.974;-1.086;2023-05-16T22:35:36;102585.49;;;15.43;63.93
33265;BME280;31404;53.974;-1.086;2023-05-16T22:40:35;102588.81;;;15.20;65.05
33265;BME280;31404;53.974;-1.086;2023-05-16T22:45:35;102591.26;;;14.30;66.84
33265;BME280;31404;53.974;-1.086;2023-05-16T22:50:37;102591.14;;;13.46;69.80
33265;BME280;31404;53.974;-1.086;2023-05-16T22:55:36;102586.94;;;14.56;66.46
33265;BME280;31404;53.974;-1.086;2023-05-16T23:00:45;102605.24;;;13.01;71.54
33265;BME280;31404;53.974;-1.086;2023-05-16T23:05:35;102612.34;;;12.67;72.45
33265;BME280;31404;53.974;-1.086;2023-05-16T23:10:36;102605.82;;;12.57;73.17
33265;BME280;31404;53.974;-1.086;2023-05-16T23:15:35;102615.58;;;11.94;76.77
33265;BME280;31404;53.974;-1.086;2023-05-16T23:20:35;102616.51;;;13.21;72.29
33265;BME280;31404;53.974;-1.086;2023-05-16T23:25:36;102617.01;;;13.74;70.11
33265;BME280;31404;53.974;-1.086;2023-05-16T23:30:35;102625.39;;;13.53;70.15
33265;BME280;31404;53.974;-1.086;2023-05-16T23:35:37;102618.19;;;14.57;68.10
33265;BME280;31404;53.974;-1.086;2023-05-16T23:40:38;102627.21;;;14.02;70.05
33265;BME280;31404;53.974;-1.086;2023-05-16T23:45:34;102625.10;;;14.45;68.61
33265;BME280;31404;53.974;-1.086;2023-05-16T23:50:34;102630.85;;;14.85;66.69
33265;BME280;31404;53.974;-1.086;2023-05-16T23:55:34;102634.48;;;13.94;68.78
